Orbital elements of FENGYUN 1C DEB
| Launched | 9 May 1999 |
| Flight ended | – |
| Launch site | Taiyuan Space Center, PRC |
| Owner | People's Republic of China |
| NORAD ID | 30293 |
| Date fetched |
Epoch osculation |
Inc. [°] |
Ecc. | RA asc node [hr] |
Arg Peri. [°] |
Mean anom [°] |
Mean motion [rev/day] |
Abs. mag |
| Date fetched |
Epoch osculation |
Inc. [°] |
Ecc. | RA asc node [hr] |
Arg Peri. [°] |
Mean anom [°] |
Mean motion [rev/day] |
Abs. mag |
| 2026 May 03 17:57 | 2026 Apr 30 12:20:04 | 99.2498 | 0.00764 | 21.9906 | 62.7342 | 328.0481 | 14.49826 | – |
| 2026 May 02 17:57 | 2026 Apr 30 12:20:04 | 99.2498 | 0.00764 | 21.9906 | 62.7342 | 328.0481 | 14.49826 | – |
| 2026 May 01 17:56 | 2026 Apr 30 12:20:04 | 99.2498 | 0.00764 | 21.9906 | 62.7342 | 328.0481 | 14.49826 | – |
| 2026 Apr 30 17:56 | 2026 Apr 30 12:20:04 | 99.2498 | 0.00764 | 21.9906 | 62.7342 | 328.0481 | 14.49826 | – |
| 2026 Apr 29 17:57 | 2026 Apr 24 12:22:41 | 99.2509 | 0.00764 | 21.5520 | 80.3070 | 328.0481 | 14.49826 | – |
| 2026 Apr 28 17:56 | 2026 Apr 24 12:22:41 | 99.2509 | 0.00764 | 21.5520 | 80.3070 | 328.0481 | 14.49826 | – |
| 2026 Apr 27 17:58 | 2026 Apr 24 12:22:41 | 99.2509 | 0.00764 | 21.5520 | 80.3070 | 328.0481 | 14.49826 | – |
| 2026 Apr 26 17:58 | 2026 Apr 24 12:22:41 | 99.2509 | 0.00764 | 21.5520 | 80.3070 | 328.0481 | 14.49826 | – |
| 2026 Apr 25 17:58 | 2026 Apr 24 12:22:41 | 99.2509 | 0.00764 | 21.5520 | 80.3070 | 328.0481 | 14.49826 | – |
| 2026 Apr 24 17:59 | 2026 Apr 24 12:22:41 | 99.2509 | 0.00764 | 21.5520 | 80.3070 | 328.0481 | 14.49826 | – |
| 2026 Apr 23 17:57 | 2026 Apr 19 08:40:34 | 99.2513 | 0.00764 | 21.1752 | 95.4379 | 328.0481 | 14.49826 | – |
| 2026 Apr 22 17:57 | 2026 Apr 19 08:40:34 | 99.2513 | 0.00764 | 21.1752 | 95.4379 | 328.0481 | 14.49826 | – |
| 2026 Apr 21 17:57 | 2026 Apr 19 08:40:34 | 99.2513 | 0.00764 | 21.1752 | 95.4379 | 328.0481 | 14.49826 | – |
| 2026 Apr 20 17:57 | 2026 Apr 19 08:40:34 | 99.2513 | 0.00764 | 21.1752 | 95.4379 | 328.0481 | 14.49826 | – |
| 2026 Apr 19 17:58 | 2026 Apr 19 08:40:34 | 99.2513 | 0.00764 | 21.1752 | 95.4379 | 328.0481 | 14.49826 | – |
| 2026 Apr 18 17:56 | 2026 Apr 13 01:50:19 | 99.2527 | 0.00763 | 20.7156 | 113.9110 | 328.0481 | 14.49826 | – |
| 2026 Apr 16 17:57 | 2026 Apr 13 01:50:19 | 99.2527 | 0.00763 | 20.7156 | 113.9110 | 328.0481 | 14.49826 | – |
| 2026 Apr 14 17:57 | 2026 Apr 13 01:50:19 | 99.2527 | 0.00763 | 20.7156 | 113.9110 | 328.0481 | 14.49826 | – |
| 2026 Apr 13 17:57 | 2026 Apr 13 01:50:19 | 99.2527 | 0.00763 | 20.7156 | 113.9110 | 328.0481 | 14.49826 | – |
| 2026 Apr 12 17:57 | 2026 Apr 08 07:06:05 | 99.2528 | 0.00761 | 20.3660 | 128.0045 | 328.0481 | 14.49826 | – |
| 2026 Apr 11 17:57 | 2026 Apr 08 07:06:05 | 99.2528 | 0.00761 | 20.3660 | 128.0045 | 328.0481 | 14.49826 | – |
| 2026 Apr 10 17:58 | 2026 Apr 08 07:06:05 | 99.2528 | 0.00761 | 20.3660 | 128.0045 | 328.0481 | 14.49826 | – |
| 2026 Apr 09 18:01 | 2026 Apr 08 07:06:05 | 99.2528 | 0.00761 | 20.3660 | 128.0045 | 328.0481 | 14.49826 | – |
| 2026 Apr 08 17:57 | 2026 Apr 08 07:06:05 | 99.2528 | 0.00761 | 20.3660 | 128.0045 | 328.0481 | 14.49826 | – |
| 2026 Apr 07 17:57 | 2026 Apr 02 00:51:11 | 99.2531 | 0.00759 | 19.9082 | 146.5428 | 328.0481 | 14.49826 | – |
| 2026 Apr 06 17:57 | 2026 Apr 02 00:51:11 | 99.2531 | 0.00759 | 19.9082 | 146.5428 | 328.0481 | 14.49826 | – |